createdAt,value
2018-06-24T00:02:06.159Z,11.97
2018-06-24T00:04:34.396Z,12.27
2018-06-24T00:07:02.623Z,11.83
2018-06-24T00:09:30.800Z,11.93
2018-06-24T00:11:59.025Z,12.30
2018-06-24T00:14:27.227Z,11.50
2018-06-24T00:16:55.417Z,11.63
2018-06-24T00:19:24.001Z,11.90
2018-06-24T00:21:52.202Z,10.10
2018-06-24T00:24:20.430Z,10.57
2018-06-24T00:26:48.622Z,11.00
2018-06-24T00:29:16.814Z,11.10
2018-06-24T00:31:45.016Z,10.50
2018-06-24T00:34:13.239Z,11.93
2018-06-24T00:36:41.446Z,10.50
2018-06-24T00:39:10.309Z,12.03
2018-06-24T00:41:38.895Z,11.73
2018-06-24T00:44:07.137Z,10.37
2018-06-24T00:46:35.559Z,12.60
2018-06-24T00:49:03.835Z,10.40
2018-06-24T00:51:32.043Z,11.20
2018-06-24T00:54:00.222Z,11.50
2018-06-24T00:56:28.411Z,11.40
2018-06-24T00:58:56.603Z,11.00
2018-06-24T01:01:24.810Z,10.30
2018-06-24T01:03:53.002Z,11.17
2018-06-24T01:06:21.186Z,9.93
2018-06-24T01:08:49.389Z,10.63
2018-06-24T01:11:17.679Z,11.30
2018-06-24T01:13:45.878Z,10.87
2018-06-24T01:16:14.066Z,11.30
2018-06-24T01:18:42.266Z,10.80
2018-06-24T01:21:10.534Z,10.93
2018-06-24T01:23:38.730Z,10.17
2018-06-24T01:26:06.914Z,11.20
2018-06-24T01:28:35.132Z,10.40
2018-06-24T01:31:03.343Z,11.27
2018-06-24T01:33:31.538Z,9.53
2018-06-24T01:35:59.751Z,11.63
2018-06-24T01:38:27.925Z,11.70
2018-06-24T01:40:56.114Z,11.47
2018-06-24T01:43:24.302Z,11.20
2018-06-24T01:45:52.495Z,12.00
2018-06-24T01:48:20.708Z,11.60
2018-06-24T01:50:48.894Z,11.20
2018-06-24T01:53:17.160Z,11.83
2018-06-24T01:55:45.351Z,11.17
2018-06-24T01:58:13.559Z,11.80
2018-06-24T02:00:41.750Z,11.70
2018-06-24T02:03:09.934Z,12.93
2018-06-24T02:05:38.143Z,13.07
2018-06-24T02:08:06.321Z,11.90
2018-06-24T02:10:34.516Z,12.03
2018-06-24T02:13:02.703Z,11.90
2018-06-24T02:15:30.898Z,11.97
2018-06-24T02:17:59.077Z,11.57
2018-06-24T02:20:27.306Z,11.83
2018-06-24T02:22:55.490Z,11.10
2018-06-24T02:25:23.683Z,11.80
2018-06-24T02:27:51.874Z,12.70
2018-06-24T02:30:20.055Z,12.17
2018-06-24T02:32:48.255Z,12.53
2018-06-24T02:35:16.442Z,12.33
2018-06-24T02:37:44.649Z,13.17
2018-06-24T02:40:12.822Z,12.43
2018-06-24T02:42:41.003Z,12.13
2018-06-24T02:45:09.219Z,11.90
2018-06-24T02:47:37.419Z,12.27
2018-06-24T02:50:05.635Z,11.50
2018-06-24T02:52:33.822Z,12.83
2018-06-24T02:55:02.014Z,12.60
2018-06-24T02:57:30.206Z,13.03
2018-06-24T02:59:58.488Z,12.03
2018-06-24T03:02:26.682Z,12.53
2018-06-24T03:04:54.872Z,13.90
2018-06-24T03:07:23.155Z,12.20
2018-06-24T03:09:51.355Z,13.10
2018-06-24T03:12:19.543Z,12.77
2018-06-24T03:14:47.768Z,12.30
2018-06-24T03:17:15.959Z,12.93
2018-06-24T03:19:44.158Z,12.73
2018-06-24T03:22:12.354Z,12.40
2018-06-24T03:24:40.538Z,12.93
2018-06-24T03:27:08.734Z,13.50
2018-06-24T03:29:36.915Z,13.70
2018-06-24T03:32:05.452Z,12.00
2018-06-24T03:34:33.647Z,12.87
2018-06-24T03:37:01.831Z,13.07
2018-06-24T03:39:30.035Z,13.10
2018-06-24T03:41:58.235Z,12.67
2018-06-24T03:44:26.413Z,12.73
2018-06-24T03:46:54.618Z,13.77
2018-06-24T03:49:22.819Z,12.50
2018-06-24T03:51:51.022Z,12.70
2018-06-24T03:54:19.210Z,13.60
2018-06-24T03:56:47.500Z,12.50
2018-06-24T03:59:15.690Z,12.40
2018-06-24T04:01:43.874Z,13.10
2018-06-24T04:04:12.088Z,12.57
2018-06-24T04:06:40.271Z,12.37
2018-06-24T04:09:08.818Z,13.53
2018-06-24T04:11:37.028Z,13.97
2018-06-24T04:14:05.255Z,13.50
2018-06-24T04:16:33.498Z,13.10
2018-06-24T04:19:01.675Z,13.00
2018-06-24T04:21:29.878Z,12.77
2018-06-24T04:23:58.066Z,13.17
2018-06-24T04:26:26.243Z,14.10
2018-06-24T04:28:54.443Z,12.53
2018-06-24T04:31:22.626Z,14.47
2018-06-24T04:33:50.818Z,12.97
2018-06-24T04:36:19.098Z,14.13
2018-06-24T04:38:47.294Z,14.20
2018-06-24T04:41:15.507Z,14.40
2018-06-24T04:43:43.686Z,13.83
2018-06-24T04:46:11.884Z,14.53
2018-06-24T04:48:40.091Z,13.33
2018-06-24T04:51:08.278Z,13.60
2018-06-24T04:53:36.487Z,13.93
2018-06-24T04:56:04.703Z,14.30
2018-06-24T04:58:32.900Z,14.23
2018-06-24T05:01:01.097Z,13.30
2018-06-24T05:03:29.282Z,14.47
2018-06-24T05:05:57.496Z,14.43
2018-06-24T05:08:25.685Z,13.90
2018-06-24T05:10:53.871Z,14.33
2018-06-24T05:13:22.073Z,14.43
2018-06-24T05:15:50.250Z,14.67
2018-06-24T05:18:18.470Z,13.90
2018-06-24T05:20:46.670Z,14.10
2018-06-24T05:23:14.855Z,14.57
2018-06-24T05:25:43.093Z,15.60
2018-06-24T05:28:11.270Z,14.67
2018-06-24T05:30:39.471Z,13.43
2018-06-24T05:33:07.666Z,14.50
2018-06-24T05:35:35.855Z,15.03
2018-06-24T05:38:04.062Z,14.77
2018-06-24T05:40:32.249Z,15.00
2018-06-24T05:43:00.469Z,14.13
2018-06-24T05:45:28.643Z,13.63
2018-06-24T05:47:56.854Z,13.50
2018-06-24T05:50:25.050Z,13.70
2018-06-24T05:52:53.282Z,14.20
2018-06-24T05:55:21.488Z,14.40
2018-06-24T05:57:49.674Z,12.93
2018-06-24T06:00:17.856Z,13.47
2018-06-24T06:02:46.121Z,15.00
2018-06-24T06:05:14.281Z,13.97
2018-06-24T06:07:42.470Z,15.03
2018-06-24T06:10:10.717Z,14.63
2018-06-24T06:12:38.858Z,14.40
2018-06-24T06:15:07.089Z,16.37
2018-06-24T06:17:35.347Z,15.30
2018-06-24T06:20:03.730Z,13.47
2018-06-24T06:22:31.938Z,14.57
2018-06-24T06:25:00.114Z,14.10
2018-06-24T06:27:28.315Z,12.87
2018-06-24T06:29:56.538Z,12.93
2018-06-24T06:32:24.748Z,11.87
2018-06-24T06:34:52.931Z,13.90
2018-06-24T06:37:21.122Z,13.57
2018-06-24T06:39:49.314Z,12.83
2018-06-24T06:42:17.494Z,14.77
2018-06-24T06:44:45.697Z,13.93
2018-06-24T06:47:13.983Z,13.23
2018-06-24T06:49:42.171Z,11.63
2018-06-24T06:52:10.354Z,12.93
2018-06-24T06:54:38.733Z,14.97
2018-06-24T06:57:08.167Z,13.23
2018-06-24T06:59:36.374Z,14.80
2018-06-24T07:02:04.584Z,13.37
2018-06-24T07:04:32.781Z,13.20
2018-06-24T07:07:01.051Z,15.00
2018-06-24T07:09:29.249Z,13.57
2018-06-24T07:11:57.433Z,13.07
2018-06-24T07:14:25.622Z,13.17
2018-06-24T07:16:54.519Z,14.43
2018-06-24T07:19:22.710Z,13.70
2018-06-24T07:21:50.914Z,13.83
2018-06-24T07:24:19.091Z,14.30
2018-06-24T07:26:47.296Z,13.63
2018-06-24T07:29:15.486Z,14.23
2018-06-24T07:31:43.667Z,13.90
2018-06-24T07:34:11.855Z,13.40
2018-06-24T07:36:40.055Z,14.30
2018-06-24T07:39:09.901Z,14.30
2018-06-24T07:41:38.070Z,15.20
2018-06-24T07:44:06.255Z,14.33
2018-06-24T07:46:34.438Z,15.23
2018-06-24T07:49:02.662Z,15.07
2018-06-24T07:51:30.854Z,15.03
2018-06-24T07:53:59.093Z,14.33
2018-06-24T07:56:27.314Z,13.57
2018-06-24T07:58:55.494Z,13.27
2018-06-24T08:01:23.703Z,14.63
2018-06-24T08:03:51.900Z,13.70
2018-06-24T08:06:20.095Z,13.63
2018-06-24T08:08:48.302Z,14.07
2018-06-24T08:11:16.564Z,14.70
2018-06-24T08:13:44.755Z,14.47
2018-06-24T08:16:12.957Z,13.53
2018-06-24T08:18:41.151Z,14.50
2018-06-24T08:21:09.453Z,15.27
2018-06-24T08:23:37.683Z,13.80
2018-06-24T08:26:05.910Z,14.80
2018-06-24T08:28:34.089Z,14.17
2018-06-24T08:31:02.295Z,15.20
2018-06-24T08:33:30.478Z,14.07
2018-06-24T08:35:58.662Z,13.43
2018-06-24T08:38:26.867Z,15.17
2018-06-24T08:40:55.055Z,13.83
2018-06-24T08:43:23.253Z,15.07
2018-06-24T08:45:51.500Z,14.23
2018-06-24T08:48:19.639Z,14.63
2018-06-24T08:50:47.842Z,14.50
2018-06-24T08:53:16.036Z,12.97
2018-06-24T08:55:44.239Z,13.97
2018-06-24T08:58:12.426Z,13.27
2018-06-24T09:00:40.685Z,13.40
2018-06-24T09:03:08.818Z,13.93
2018-06-24T09:05:37.006Z,14.03
2018-06-24T09:08:05.740Z,14.33
2018-06-24T09:10:33.990Z,14.17
2018-06-24T09:13:02.178Z,13.57
2018-06-24T09:15:30.401Z,16.00
2018-06-24T09:17:58.606Z,12.60
2018-06-24T09:20:26.814Z,15.00
2018-06-24T09:22:55.008Z,12.30
2018-06-24T09:25:23.243Z,12.20
2018-06-24T09:27:51.454Z,12.90
2018-06-24T09:30:19.755Z,12.40
2018-06-24T09:32:47.966Z,11.80
2018-06-24T09:35:16.171Z,12.43
2018-06-24T09:37:44.366Z,12.13
2018-06-24T09:40:12.549Z,11.60
2018-06-24T09:42:40.922Z,14.50
2018-06-24T09:45:09.258Z,11.57
2018-06-24T09:47:37.470Z,12.43
2018-06-24T09:50:05.722Z,10.40
2018-06-24T09:52:33.926Z,10.87
2018-06-24T09:55:02.214Z,10.83
2018-06-24T09:57:30.409Z,10.70
2018-06-24T09:59:58.626Z,11.53
2018-06-24T10:02:26.828Z,10.60
2018-06-24T10:04:55.062Z,10.53
2018-06-24T10:07:23.373Z,10.83
2018-06-24T10:09:51.562Z,12.07
2018-06-24T10:12:19.870Z,10.67
2018-06-24T10:14:48.062Z,11.27
2018-06-24T10:17:16.487Z,10.33
2018-06-24T10:19:44.671Z,10.50
2018-06-24T10:22:12.880Z,10.30
2018-06-24T10:24:41.091Z,11.10
2018-06-24T10:27:09.274Z,11.90
2018-06-24T10:29:37.516Z,9.50
2018-06-24T10:32:05.955Z,9.70
2018-06-24T10:34:34.365Z,10.23
2018-06-24T10:37:02.622Z,9.87
2018-06-24T10:39:30.822Z,9.43
2018-06-24T10:41:59.011Z,9.70
2018-06-24T10:44:27.206Z,7.93
2018-06-24T10:46:55.382Z,9.07
2018-06-24T10:49:23.570Z,8.90
2018-06-24T10:51:51.783Z,8.67
2018-06-24T10:54:19.962Z,9.30
2018-06-24T10:56:48.167Z,8.03
2018-06-24T10:59:16.362Z,8.80
2018-06-24T11:01:44.542Z,9.87
2018-06-24T11:04:12.740Z,8.47
2018-06-24T11:06:40.930Z,8.40
2018-06-24T11:09:10.238Z,8.17
2018-06-24T11:11:38.491Z,7.77
2018-06-24T11:14:06.926Z,7.57
2018-06-24T11:16:35.590Z,8.77
2018-06-24T11:19:03.697Z,7.93
2018-06-24T11:21:31.944Z,8.17
2018-06-24T11:24:00.161Z,7.40
2018-06-24T11:26:28.368Z,7.30
2018-06-24T11:28:56.562Z,8.67
2018-06-24T11:31:24.746Z,8.40
2018-06-24T11:33:52.950Z,8.40
2018-06-24T11:36:21.140Z,8.43
2018-06-24T11:38:49.322Z,8.80
2018-06-24T11:41:17.519Z,8.67
2018-06-24T11:43:45.706Z,7.83
2018-06-24T11:46:13.987Z,7.77
2018-06-24T11:48:42.212Z,7.43
2018-06-24T11:51:10.411Z,8.37
2018-06-24T11:53:38.594Z,7.93
2018-06-24T11:56:06.784Z,9.20
2018-06-24T11:58:35.074Z,8.03
2018-06-24T12:01:03.294Z,7.93
2018-06-24T12:03:31.495Z,7.70
2018-06-24T12:05:59.699Z,8.43
2018-06-24T12:08:28.243Z,8.57
2018-06-24T12:10:56.459Z,8.30
2018-06-24T12:13:24.651Z,7.47
2018-06-24T12:15:52.846Z,8.70
2018-06-24T12:18:21.097Z,8.07
2018-06-24T12:20:49.274Z,7.90
2018-06-24T12:23:17.458Z,7.17
2018-06-24T12:25:45.649Z,8.20
2018-06-24T12:28:13.882Z,7.60
2018-06-24T12:30:42.133Z,7.70
2018-06-24T12:33:10.290Z,7.87
2018-06-24T12:35:38.483Z,8.00
2018-06-24T12:38:06.910Z,6.80
2018-06-24T12:40:35.122Z,6.97
2018-06-24T12:43:04.391Z,7.57
2018-06-24T12:45:33.038Z,6.83
2018-06-24T12:48:01.242Z,7.07
2018-06-24T12:50:29.604Z,7.03
2018-06-24T12:52:58.366Z,6.47
2018-06-24T12:55:26.547Z,6.50
2018-06-24T12:57:55.054Z,6.67
2018-06-24T13:00:23.632Z,7.10
2018-06-24T13:02:51.458Z,6.30
2018-06-24T13:05:19.692Z,6.60
2018-06-24T13:07:47.870Z,5.70
2018-06-24T13:10:16.058Z,7.37
2018-06-24T13:12:44.238Z,6.53
2018-06-24T13:15:12.424Z,7.20
2018-06-24T13:17:40.614Z,6.50
2018-06-24T13:20:08.815Z,6.40
2018-06-24T13:22:37.058Z,7.97
2018-06-24T13:25:05.322Z,5.70
2018-06-24T13:27:33.509Z,5.87
2018-06-24T13:30:01.705Z,5.90
2018-06-24T13:32:29.871Z,5.53
2018-06-24T13:34:58.062Z,6.67
2018-06-24T13:37:26.257Z,5.57
2018-06-24T13:39:54.419Z,6.33
2018-06-24T13:42:22.670Z,6.90
2018-06-24T13:44:50.793Z,6.20
2018-06-24T13:47:18.978Z,6.40
2018-06-24T13:49:47.163Z,6.50
2018-06-24T13:52:15.359Z,6.97
2018-06-24T13:54:43.550Z,7.23
2018-06-24T13:57:11.742Z,5.93
2018-06-24T13:59:39.946Z,6.97
2018-06-24T14:02:08.133Z,6.90
2018-06-24T14:04:36.348Z,7.00
2018-06-24T14:07:04.595Z,6.17
2018-06-24T14:09:32.770Z,5.70
2018-06-24T14:12:00.967Z,6.47
2018-06-24T14:14:29.158Z,6.53
2018-06-24T14:16:57.344Z,6.70
2018-06-24T14:19:25.534Z,6.87
2018-06-24T14:21:53.723Z,6.90
2018-06-24T14:24:22.027Z,6.87
2018-06-24T14:26:50.218Z,6.03
2018-06-24T14:29:18.411Z,6.40
2018-06-24T14:31:46.616Z,6.57
2018-06-24T14:34:14.788Z,5.77
2018-06-24T14:39:33.643Z,6.17
2018-06-24T14:42:01.812Z,5.57
2018-06-24T14:44:30.003Z,6.90
2018-06-24T14:46:58.210Z,5.70
2018-06-24T14:49:26.411Z,6.27
2018-06-24T14:51:54.590Z,6.20
2018-06-24T14:54:22.795Z,6.00
2018-06-24T14:56:51.034Z,6.57
2018-06-24T14:59:19.235Z,6.40
2018-06-24T15:01:47.542Z,6.77
2018-06-24T15:04:15.631Z,6.70
2018-06-24T15:06:43.814Z,6.67
2018-06-24T15:09:12.797Z,6.43
2018-06-24T15:11:40.987Z,6.10
2018-06-24T15:14:09.250Z,7.40
2018-06-24T15:16:37.869Z,7.20
2018-06-24T15:19:06.547Z,5.73
2018-06-24T15:21:34.746Z,6.70
2018-06-24T15:24:02.946Z,6.30
2018-06-24T15:26:31.130Z,6.83
2018-06-24T15:28:59.335Z,6.57
2018-06-24T15:31:27.542Z,6.70
2018-06-24T15:33:55.726Z,6.50
2018-06-24T15:36:23.911Z,6.83
2018-06-24T15:38:52.114Z,6.37
2018-06-24T15:41:20.325Z,6.87
2018-06-24T15:43:48.486Z,6.97
2018-06-24T15:46:16.699Z,7.63
2018-06-24T15:48:45.915Z,7.60
2018-06-24T15:51:16.105Z,7.60
2018-06-24T15:53:44.290Z,7.30
2018-06-24T15:56:12.724Z,7.87
2018-06-24T15:58:40.902Z,8.30
2018-06-24T16:01:09.091Z,7.53
2018-06-24T16:03:37.378Z,9.00
2018-06-24T16:06:05.950Z,7.70
2018-06-24T16:08:34.146Z,7.97
2018-06-24T16:11:02.323Z,9.20
2018-06-24T16:13:30.536Z,8.20
2018-06-24T16:15:58.715Z,8.27
2018-06-24T16:18:26.899Z,9.47
2018-06-24T16:20:55.189Z,8.60
2018-06-24T16:23:23.287Z,7.60
2018-06-24T16:25:51.489Z,10.80
2018-06-24T16:28:19.698Z,9.67
2018-06-24T16:30:47.955Z,9.70
2018-06-24T16:33:16.132Z,9.10
2018-06-24T16:35:44.425Z,9.13
2018-06-24T16:38:12.718Z,9.93
2018-06-24T16:40:40.891Z,9.57
2018-06-24T16:43:09.171Z,9.77
2018-06-24T16:45:37.351Z,10.30
2018-06-24T16:48:05.579Z,10.70
2018-06-24T16:50:33.818Z,9.27
2018-06-24T16:53:01.946Z,10.47
2018-06-24T16:55:30.159Z,9.37
2018-06-24T16:57:58.350Z,10.20
2018-06-24T17:00:26.535Z,9.83
2018-06-24T17:02:54.719Z,10.87
2018-06-24T17:05:22.910Z,10.60
2018-06-24T17:07:51.096Z,10.50
2018-06-24T17:10:19.299Z,10.40
2018-06-24T17:12:47.543Z,10.57
2018-06-24T17:15:16.588Z,11.20
2018-06-24T17:17:44.796Z,10.73
2018-06-24T17:20:13.003Z,9.97
2018-06-24T17:22:41.210Z,10.73
2018-06-24T17:25:09.426Z,10.10
2018-06-24T17:27:37.654Z,11.20
2018-06-24T17:30:05.879Z,10.03
2018-06-24T17:32:34.082Z,10.93
2018-06-24T17:35:02.306Z,10.80
2018-06-24T17:37:30.507Z,11.30
2018-06-24T17:39:58.719Z,10.70
2018-06-24T17:42:26.927Z,12.10
2018-06-24T17:44:55.113Z,11.70
2018-06-24T17:47:23.372Z,12.97
2018-06-24T17:49:51.520Z,10.90
2018-06-24T17:52:19.706Z,11.57
2018-06-24T17:54:47.916Z,11.43
2018-06-24T17:57:16.149Z,10.73
2018-06-24T17:59:44.342Z,11.40
2018-06-24T18:02:12.537Z,10.40
2018-06-24T18:04:40.778Z,11.23
2018-06-24T18:07:08.977Z,11.20
2018-06-24T18:09:37.172Z,10.30
2018-06-24T18:12:05.739Z,10.60
2018-06-24T18:14:33.919Z,10.83
2018-06-24T18:17:02.155Z,11.07
2018-06-24T18:19:30.439Z,10.03
2018-06-24T18:21:58.718Z,11.40
2018-06-24T18:24:27.084Z,10.10
2018-06-24T18:26:55.322Z,10.00
2018-06-24T18:29:23.581Z,10.30
2018-06-24T18:31:51.870Z,10.90
2018-06-24T18:34:20.202Z,9.77
2018-06-24T18:36:48.455Z,9.30
2018-06-24T18:39:16.653Z,10.13
2018-06-24T18:41:44.942Z,8.83
2018-06-24T18:44:13.220Z,10.60
2018-06-24T18:46:41.515Z,11.87
2018-06-24T18:49:09.838Z,13.17
2018-06-24T18:51:38.107Z,10.80
2018-06-24T18:54:06.389Z,11.03
2018-06-24T18:56:34.715Z,11.63
2018-06-24T18:59:03.003Z,11.83
2018-06-24T19:01:31.250Z,10.00
2018-06-24T19:03:59.532Z,10.30
2018-06-24T19:06:27.858Z,11.57
2018-06-24T19:08:56.148Z,10.60
2018-06-24T19:11:24.420Z,9.13
2018-06-24T19:13:52.726Z,10.93
2018-06-24T19:16:20.943Z,10.30
2018-06-24T19:18:49.250Z,9.80
2018-06-24T19:21:17.477Z,10.57
2018-06-24T19:23:45.759Z,9.00
2018-06-24T19:26:13.967Z,8.87
2018-06-24T19:28:42.254Z,10.70
2018-06-24T19:31:10.544Z,9.67
2018-06-24T19:33:38.900Z,9.27
2018-06-24T19:36:07.259Z,10.93
2018-06-24T19:38:35.472Z,11.20
2018-06-24T19:41:03.750Z,9.80
2018-06-24T19:43:31.965Z,10.43
2018-06-24T19:46:00.278Z,9.50
2018-06-24T19:48:28.598Z,10.43
2018-06-24T19:50:56.825Z,11.37
2018-06-24T19:53:25.110Z,9.80
2018-06-24T19:55:53.330Z,12.60
2018-06-24T19:58:21.587Z,10.10
2018-06-24T20:00:49.870Z,10.23
2018-06-24T20:03:18.217Z,9.77
2018-06-24T20:05:46.368Z,13.00
2018-06-24T20:08:14.626Z,10.63
2018-06-24T20:10:42.822Z,10.37
2018-06-24T20:13:11.130Z,10.57
2018-06-24T20:15:39.394Z,10.33
2018-06-24T20:18:07.595Z,10.30
2018-06-24T20:20:35.858Z,9.57
2018-06-24T20:23:04.050Z,9.67
2018-06-24T20:25:32.263Z,12.43
2018-06-24T20:28:00.555Z,15.30
2018-06-24T20:30:28.827Z,10.63
2018-06-24T20:32:57.128Z,12.67
2018-06-24T20:35:25.420Z,11.07
2018-06-24T20:37:53.622Z,11.40
2018-06-24T20:40:21.844Z,11.10
2018-06-24T20:42:50.074Z,10.90
2018-06-24T20:45:18.371Z,13.23
2018-06-24T20:47:46.578Z,11.80
2018-06-24T20:50:14.799Z,14.03
2018-06-24T20:52:42.979Z,12.07
2018-06-24T20:55:11.218Z,13.37
2018-06-24T20:57:39.486Z,13.73
2018-06-24T21:00:08.266Z,11.90
2018-06-24T21:02:36.495Z,11.00
2018-06-24T21:05:05.014Z,11.60
2018-06-24T21:07:33.258Z,11.87
2018-06-24T21:10:01.446Z,14.00
2018-06-24T21:12:29.729Z,13.70
2018-06-24T21:14:58.078Z,12.27
2018-06-24T21:17:26.346Z,15.17
2018-06-24T21:19:54.642Z,13.00
2018-06-24T21:22:22.891Z,12.60
2018-06-24T21:24:51.204Z,14.00
2018-06-24T21:27:19.390Z,13.50
2018-06-24T21:29:47.650Z,13.30
2018-06-24T21:32:15.846Z,13.07
2018-06-24T21:34:44.118Z,13.43
2018-06-24T21:37:12.322Z,14.00
2018-06-24T21:39:40.610Z,12.50
2018-06-24T21:42:08.898Z,12.87
2018-06-24T21:44:37.171Z,12.90
2018-06-24T21:47:05.448Z,11.60
2018-06-24T21:49:33.728Z,10.87
2018-06-24T21:52:01.855Z,11.50
2018-06-24T21:54:30.048Z,10.50
2018-06-24T21:56:58.237Z,10.77
2018-06-24T21:59:26.426Z,9.60
2018-06-24T22:01:54.627Z,10.10
2018-06-24T22:04:22.874Z,10.07
2018-06-24T22:06:51.062Z,9.37
2018-06-24T22:09:19.278Z,9.27
2018-06-24T22:11:47.450Z,8.93
2018-06-24T22:14:15.647Z,9.80
2018-06-24T22:16:43.858Z,8.90
2018-06-24T22:19:12.076Z,8.90
2018-06-24T22:21:40.271Z,8.80
2018-06-24T22:24:08.511Z,9.60
2018-06-24T22:26:36.707Z,9.60
2018-06-24T22:29:04.898Z,8.90
2018-06-24T22:31:33.110Z,8.40
2018-06-24T22:34:01.302Z,8.57
2018-06-24T22:36:29.480Z,9.30
2018-06-24T22:38:57.659Z,8.70
2018-06-24T22:41:25.843Z,8.60
2018-06-24T22:43:54.027Z,9.00
2018-06-24T22:46:22.256Z,9.70
2018-06-24T22:48:50.430Z,8.00
2018-06-24T22:51:18.666Z,9.17
2018-06-24T22:53:46.871Z,9.00
2018-06-24T22:56:15.043Z,10.20
2018-06-24T22:58:49.096Z,8.80
2018-06-24T23:01:17.291Z,9.47
2018-06-24T23:03:45.487Z,9.20
2018-06-24T23:06:13.682Z,8.60
2018-06-24T23:08:41.871Z,10.13
2018-06-24T23:11:10.055Z,8.80
2018-06-24T23:13:38.238Z,9.20
2018-06-24T23:16:06.470Z,9.23
2018-06-24T23:18:34.653Z,9.60
2018-06-24T23:21:02.850Z,8.90
2018-06-24T23:23:31.034Z,8.77
2018-06-24T23:25:59.222Z,9.10
2018-06-24T23:28:27.411Z,8.83
2018-06-24T23:30:55.591Z,8.50
2018-06-24T23:33:23.774Z,8.30
2018-06-24T23:35:51.962Z,8.70
2018-06-24T23:38:20.138Z,8.83
2018-06-24T23:40:48.315Z,9.00
2018-06-24T23:43:16.506Z,8.60
2018-06-24T23:45:44.697Z,8.80
2018-06-24T23:48:12.874Z,8.20
2018-06-24T23:50:41.087Z,8.87
2018-06-24T23:53:09.272Z,8.73
2018-06-24T23:55:37.443Z,8.33
2018-06-24T23:58:05.667Z,8.27
